createdAt,value
2022-09-25T00:01:10.985Z,7.77
2022-09-25T00:03:40.986Z,7.70
2022-09-25T00:06:10.499Z,7.43
2022-09-25T00:08:40.120Z,7.23
2022-09-25T00:11:09.139Z,6.87
2022-09-25T00:13:37.075Z,7.47
2022-09-25T00:16:06.703Z,8.30
2022-09-25T00:18:51.663Z,8.20
2022-09-25T00:21:20.653Z,6.47
2022-09-25T00:23:48.861Z,6.20
2022-09-25T00:26:17.738Z,5.33
2022-09-25T00:28:45.440Z,6.07
2022-09-25T00:31:19.376Z,5.67
2022-09-25T00:33:46.978Z,5.90
2022-09-25T00:36:14.547Z,6.27
2022-09-25T00:38:46.204Z,5.93
2022-09-25T00:41:13.791Z,5.67
2022-09-25T00:43:44.517Z,5.30
2022-09-25T00:46:17.480Z,4.90
2022-09-25T00:48:51.183Z,4.90
2022-09-25T00:51:29.753Z,5.43
2022-09-25T00:54:04.403Z,5.13
2022-09-25T00:56:38.695Z,5.60
2022-09-25T00:59:10.948Z,5.00
2022-09-25T01:01:38.896Z,5.00
2022-09-25T01:04:06.932Z,4.70
2022-09-25T01:06:37.087Z,4.57
2022-09-25T01:09:06.592Z,4.80
2022-09-25T01:11:34.510Z,6.13
2022-09-25T01:14:05.518Z,5.70
2022-09-25T01:16:39.440Z,6.03
2022-09-25T01:19:23.064Z,4.93
2022-09-25T01:21:55.578Z,5.37
2022-09-25T01:24:45.877Z,4.90
2022-09-25T01:27:47.113Z,5.47
2022-09-25T01:30:20.747Z,5.40
2022-09-25T01:32:59.558Z,5.87
2022-09-25T01:35:39.299Z,6.83
2022-09-25T01:38:17.136Z,5.20
2022-09-25T01:40:51.122Z,5.20
2022-09-25T01:43:23.679Z,6.43
2022-09-25T01:45:55.026Z,6.53
2022-09-25T01:48:27.077Z,6.57
2022-09-25T01:51:00.518Z,6.27
2022-09-25T01:53:32.513Z,5.53
2022-09-25T01:56:04.441Z,5.37
2022-09-25T01:58:37.125Z,5.43
2022-09-25T02:01:11.521Z,5.63
2022-09-25T02:03:44.014Z,5.40
2022-09-25T02:06:17.445Z,5.30
2022-09-25T02:08:50.409Z,5.40
2022-09-25T02:11:18.190Z,5.10
2022-09-25T02:13:50.968Z,5.03
2022-09-25T02:16:23.846Z,4.70
2022-09-25T02:19:08.697Z,5.07
2022-09-25T02:21:46.629Z,4.60
2022-09-25T02:24:20.943Z,5.70
2022-09-25T02:26:49.551Z,4.83
2022-09-25T02:29:17.622Z,5.37
2022-09-25T02:31:50.816Z,5.27
2022-09-25T02:34:18.584Z,5.00
2022-09-25T02:36:46.382Z,5.37
2022-09-25T02:39:17.247Z,5.07
2022-09-25T02:41:59.263Z,5.20
2022-09-25T02:44:37.262Z,4.97
2022-09-25T02:47:19.232Z,5.70
2022-09-25T02:49:52.148Z,5.10
2022-09-25T02:52:28.555Z,5.43
2022-09-25T02:55:02.292Z,5.40
2022-09-25T02:57:37.789Z,4.83
2022-09-25T03:00:10.475Z,5.13
2022-09-25T03:02:41.497Z,5.13
2022-09-25T03:05:13.600Z,4.67
2022-09-25T03:07:55.499Z,4.90
2022-09-25T03:10:24.646Z,4.40
2022-09-25T03:12:52.270Z,4.60
2022-09-25T03:15:23.782Z,5.20
2022-09-25T03:17:53.222Z,4.87
2022-09-25T03:20:20.793Z,4.97
2022-09-25T03:22:48.354Z,5.10
2022-09-25T03:25:16.559Z,4.80
2022-09-25T03:27:44.131Z,5.37
2022-09-25T03:30:12.281Z,5.23
2022-09-25T03:32:42.108Z,5.47
2022-09-25T03:35:11.295Z,5.27
2022-09-25T03:37:39.168Z,4.77
2022-09-25T03:40:08.311Z,5.07
2022-09-25T03:42:36.332Z,4.83
2022-09-25T03:45:04.022Z,5.30
2022-09-25T03:47:31.649Z,5.10
2022-09-25T03:49:59.184Z,4.83
2022-09-25T03:52:28.114Z,5.23
2022-09-25T03:54:55.680Z,5.63
2022-09-25T03:57:23.265Z,4.90
2022-09-25T03:59:50.955Z,5.50
2022-09-25T04:02:18.558Z,5.13
2022-09-25T04:04:46.420Z,5.07
2022-09-25T04:07:13.994Z,4.63
2022-09-25T04:09:42.989Z,4.47
2022-09-25T04:12:11.312Z,4.90
2022-09-25T04:14:38.912Z,5.07
2022-09-25T04:17:06.454Z,4.60
2022-09-25T04:19:34.112Z,5.47
2022-09-25T04:22:01.692Z,4.40
2022-09-25T04:24:47.070Z,4.47
2022-09-25T04:27:17.259Z,4.93
2022-09-25T04:29:44.895Z,3.97
2022-09-25T04:32:29.832Z,4.40
2022-09-25T04:34:58.274Z,3.80
2022-09-25T04:37:27.080Z,4.50
2022-09-25T04:39:54.991Z,4.50
2022-09-25T04:42:25.056Z,4.03
2022-09-25T04:44:53.839Z,4.20
2022-09-25T04:47:21.584Z,4.13
2022-09-25T04:49:49.741Z,4.73
2022-09-25T04:52:18.868Z,4.37
2022-09-25T04:54:47.622Z,4.20
2022-09-25T04:57:27.603Z,3.90
2022-09-25T05:00:07.277Z,4.40
2022-09-25T05:02:35.114Z,4.70
2022-09-25T05:05:03.349Z,4.30
2022-09-25T05:07:30.976Z,4.23
2022-09-25T05:09:58.782Z,4.33
2022-09-25T05:12:26.338Z,4.30
2022-09-25T05:14:54.315Z,4.33
2022-09-25T05:17:23.265Z,4.27
2022-09-25T05:19:50.879Z,4.90
2022-09-25T05:22:18.485Z,4.47
2022-09-25T05:24:46.135Z,4.20
2022-09-25T05:27:13.756Z,4.07
2022-09-25T05:29:41.367Z,4.40
2022-09-25T05:32:08.957Z,3.93
2022-09-25T05:34:37.842Z,3.90
2022-09-25T05:37:05.382Z,3.80
2022-09-25T05:39:33.004Z,3.80
2022-09-25T05:42:02.398Z,3.70
2022-09-25T05:44:29.980Z,3.87
2022-09-25T05:46:57.636Z,3.57
2022-09-25T05:49:25.348Z,3.50
2022-09-25T05:51:54.279Z,4.30
2022-09-25T05:54:21.842Z,4.40
2022-09-25T05:56:49.398Z,3.67
2022-09-25T05:59:17.107Z,3.40
2022-09-25T06:01:45.036Z,3.70
2022-09-25T06:04:12.814Z,3.37
2022-09-25T06:06:40.588Z,3.40
2022-09-25T06:09:09.508Z,3.80
2022-09-25T06:11:37.410Z,3.33
2022-09-25T06:14:05.057Z,3.23
2022-09-25T06:16:33.520Z,3.50
2022-09-25T06:19:01.160Z,3.20
2022-09-25T06:21:28.721Z,3.13
2022-09-25T06:23:56.287Z,3.13
2022-09-25T06:26:25.883Z,3.60
2022-09-25T06:28:53.930Z,3.17
2022-09-25T06:31:21.605Z,3.30
2022-09-25T06:33:51.549Z,3.20
2022-09-25T06:36:19.131Z,3.00
2022-09-25T06:38:46.946Z,3.03
2022-09-25T06:41:14.519Z,3.37
2022-09-25T06:43:43.480Z,3.43
2022-09-25T06:46:11.104Z,3.50
2022-09-25T06:48:39.459Z,2.90
2022-09-25T06:51:08.776Z,3.33
2022-09-25T06:53:36.674Z,3.60
2022-09-25T06:56:04.724Z,3.63
2022-09-25T06:58:32.371Z,3.30
2022-09-25T07:01:03.207Z,3.60
2022-09-25T07:03:44.973Z,3.50
2022-09-25T07:06:14.514Z,3.70
2022-09-25T07:08:43.589Z,3.57
2022-09-25T07:11:13.690Z,3.90
2022-09-25T07:13:41.966Z,3.83
2022-09-25T07:16:14.441Z,4.57
2022-09-25T07:18:43.711Z,4.50
2022-09-25T07:21:13.216Z,4.37
2022-09-25T07:23:42.093Z,3.90
2022-09-25T07:26:12.346Z,4.20
2022-09-25T07:28:42.007Z,4.47
2022-09-25T07:31:16.988Z,4.50
2022-09-25T07:33:44.906Z,4.30
2022-09-25T07:36:13.007Z,5.00
2022-09-25T07:38:41.191Z,4.60
2022-09-25T07:41:11.583Z,4.93
2022-09-25T07:43:39.426Z,4.10
2022-09-25T07:46:07.895Z,5.10
2022-09-25T07:48:37.161Z,5.10
2022-09-25T07:51:06.391Z,4.83
2022-09-25T07:53:34.004Z,4.57
2022-09-25T07:56:06.486Z,5.17
2022-09-25T07:58:36.110Z,4.97
2022-09-25T08:01:06.016Z,5.50
2022-09-25T08:03:34.082Z,5.03
2022-09-25T08:06:04.786Z,5.37
2022-09-25T08:08:34.264Z,5.57
2022-09-25T08:11:02.894Z,5.83
2022-09-25T08:13:30.473Z,5.30
2022-09-25T08:15:58.185Z,6.73
2022-09-25T08:18:25.830Z,7.47
2022-09-25T08:20:53.474Z,7.70
2022-09-25T08:23:23.744Z,6.43
2022-09-25T08:25:51.386Z,7.00
2022-09-25T08:28:18.957Z,7.00
2022-09-25T08:30:47.333Z,7.03
2022-09-25T08:33:15.890Z,7.33
2022-09-25T08:35:44.542Z,7.97
2022-09-25T08:38:12.274Z,9.20
2022-09-25T08:40:52.625Z,8.37
2022-09-25T08:43:24.205Z,8.73
2022-09-25T08:46:11.525Z,9.13
2022-09-25T08:49:06.253Z,10.20
2022-09-25T08:51:37.449Z,10.03
2022-09-25T08:54:06.702Z,10.23
2022-09-25T08:56:37.525Z,9.53
2022-09-25T08:59:12.088Z,9.33
2022-09-25T09:01:47.152Z,9.20
2022-09-25T09:04:20.287Z,8.97
2022-09-25T09:07:24.712Z,8.33
2022-09-25T09:09:45.408Z,10.03
2022-09-25T09:12:18.451Z,9.70
2022-09-25T09:14:48.587Z,9.50
2022-09-25T09:17:19.814Z,9.07
2022-09-25T09:19:50.033Z,9.67
2022-09-25T09:22:23.918Z,9.53
2022-09-25T09:25:03.686Z,8.50
2022-09-25T09:27:59.398Z,9.27
2022-09-25T09:30:36.015Z,9.37
2022-09-25T09:33:22.507Z,9.13
2022-09-25T09:36:06.865Z,8.27
2022-09-25T09:38:44.940Z,9.13
2022-09-25T09:41:23.408Z,8.90
2022-09-25T09:44:04.059Z,7.90
2022-09-25T09:46:44.708Z,8.23
2022-09-25T09:49:18.311Z,8.10
2022-09-25T09:51:52.797Z,7.00
2022-09-25T09:54:26.921Z,7.53
2022-09-25T09:56:57.650Z,7.40
2022-09-25T09:59:31.466Z,7.53
2022-09-25T10:02:06.078Z,7.73
2022-09-25T10:04:37.443Z,7.63
2022-09-25T10:07:08.244Z,7.13
2022-09-25T10:09:37.192Z,8.47
2022-09-25T10:12:11.401Z,6.97
2022-09-25T10:14:44.116Z,7.20
2022-09-25T10:17:15.181Z,7.30
2022-09-25T10:19:49.675Z,8.20
2022-09-25T10:22:20.263Z,6.93
2022-09-25T10:24:53.481Z,7.13
2022-09-25T10:27:30.025Z,7.47
2022-09-25T10:30:18.024Z,8.90
2022-09-25T10:32:57.338Z,6.47
2022-09-25T10:35:28.216Z,6.80
2022-09-25T10:37:58.268Z,7.10
2022-09-25T10:40:29.412Z,7.57
2022-09-25T10:43:06.349Z,6.50
2022-09-25T10:45:37.062Z,8.00
2022-09-25T10:48:42.977Z,8.10
2022-09-25T10:51:12.184Z,6.07
2022-09-25T10:53:39.769Z,7.97
2022-09-25T10:56:12.213Z,9.07
2022-09-25T10:58:43.608Z,9.30
2022-09-25T11:01:14.313Z,8.50
2022-09-25T11:03:49.964Z,8.07
2022-09-25T11:06:22.009Z,8.47
2022-09-25T11:08:56.258Z,8.37
2022-09-25T11:11:26.930Z,7.33
2022-09-25T11:13:58.103Z,7.60
2022-09-25T11:16:47.408Z,6.87
2022-09-25T11:19:17.356Z,7.47
2022-09-25T11:21:51.895Z,5.90
2022-09-25T11:24:24.723Z,6.80
2022-09-25T11:26:59.124Z,6.30
2022-09-25T11:29:36.276Z,4.70
2022-09-25T11:32:11.014Z,4.97
2022-09-25T11:34:57.511Z,6.10
2022-09-25T11:37:32.291Z,5.27
2022-09-25T11:40:30.566Z,5.53
2022-09-25T11:43:04.051Z,5.23
2022-09-25T11:45:36.695Z,5.70
2022-09-25T11:48:12.978Z,5.20
2022-09-25T11:50:49.742Z,6.80
2022-09-25T11:53:33.513Z,6.23
2022-09-25T11:56:18.703Z,6.33
2022-09-25T11:58:57.874Z,6.23
2022-09-25T12:01:33.893Z,5.60
2022-09-25T12:04:17.042Z,4.07
2022-09-25T12:07:01.446Z,4.33
2022-09-25T12:09:40.996Z,6.77
2022-09-25T12:12:17.361Z,6.70
2022-09-25T12:14:52.662Z,6.63
2022-09-25T12:17:26.585Z,7.33
2022-09-25T12:20:05.499Z,5.80
2022-09-25T12:22:44.593Z,5.87
2022-09-25T12:25:35.018Z,5.10
2022-09-25T12:28:12.611Z,7.50
2022-09-25T12:30:50.289Z,6.17
2022-09-25T12:33:29.670Z,6.13
2022-09-25T12:36:03.947Z,6.73
2022-09-25T12:38:41.831Z,7.07
2022-09-25T12:41:17.993Z,5.80
2022-09-25T12:43:52.975Z,5.87
2022-09-25T12:46:27.003Z,7.47
2022-09-25T12:49:02.063Z,5.60
2022-09-25T12:51:35.942Z,6.70
2022-09-25T12:54:14.846Z,7.70
2022-09-25T12:56:51.968Z,6.80
2022-09-25T12:59:25.155Z,6.03
2022-09-25T13:01:58.730Z,6.10
2022-09-25T13:04:49.064Z,5.70
2022-09-25T13:07:24.878Z,6.83
2022-09-25T13:09:52.488Z,6.70
2022-09-25T13:12:33.309Z,5.25
2022-09-25T13:15:06.784Z,5.87
2022-09-25T13:17:34.598Z,6.22
2022-09-25T13:20:41.088Z,6.05
2022-09-25T13:23:15.011Z,6.73
2022-09-25T13:25:46.422Z,6.77
2022-09-25T13:28:21.407Z,7.20
2022-09-25T13:31:08.081Z,6.83
2022-09-25T13:33:45.150Z,7.07
2022-09-25T13:36:46.406Z,7.20
2022-09-25T13:39:46.654Z,7.40
2022-09-25T13:42:22.274Z,7.07
2022-09-25T13:44:52.603Z,7.37
2022-09-25T13:47:57.374Z,8.27
2022-09-25T13:50:32.210Z,7.77
2022-09-25T13:53:18.593Z,7.00
2022-09-25T13:56:14.408Z,7.47
2022-09-25T13:59:02.015Z,7.43
2022-09-25T14:01:36.278Z,7.37
2022-09-25T14:04:10.775Z,7.33
2022-09-25T14:06:41.530Z,6.33
2022-09-25T14:09:12.392Z,7.17
2022-09-25T14:11:45.428Z,7.20
2022-09-25T14:14:31.347Z,6.77
2022-09-25T14:17:02.546Z,7.30
2022-09-25T14:19:33.100Z,6.83
2022-09-25T14:22:03.668Z,6.40
2022-09-25T14:24:32.254Z,7.70
2022-09-25T14:27:02.644Z,7.77
2022-09-25T14:29:32.735Z,7.37
2022-09-25T14:32:50.366Z,7.27
2022-09-25T14:35:25.319Z,7.67
2022-09-25T14:38:36.771Z,7.40
2022-09-25T14:41:22.647Z,6.47
2022-09-25T14:44:04.645Z,7.80
2022-09-25T14:46:34.477Z,8.00
2022-09-25T14:49:09.386Z,7.30
2022-09-25T14:51:40.730Z,6.70
2022-09-25T14:54:12.464Z,6.13
2022-09-25T14:56:40.391Z,6.50
2022-09-25T14:59:13.666Z,5.00
2022-09-25T15:01:47.835Z,7.53
2022-09-25T15:04:26.868Z,7.23
2022-09-25T15:07:01.188Z,6.77
2022-09-25T15:09:37.183Z,6.27
2022-09-25T15:12:18.733Z,5.83
2022-09-25T15:15:02.075Z,6.37
2022-09-25T15:17:31.187Z,7.07
2022-09-25T15:20:01.138Z,6.13
2022-09-25T15:22:33.270Z,7.70
2022-09-25T15:25:04.216Z,7.13
2022-09-25T15:27:32.490Z,6.80
2022-09-25T15:30:03.032Z,6.70
2022-09-25T15:32:39.389Z,6.80
2022-09-25T15:35:18.172Z,6.20
2022-09-25T15:37:46.361Z,7.13
2022-09-25T15:40:25.714Z,5.40
2022-09-25T15:42:53.743Z,5.23
2022-09-25T15:45:42.180Z,6.63
2022-09-25T15:48:21.837Z,6.40
2022-09-25T15:50:50.023Z,6.60
2022-09-25T15:53:28.312Z,6.27
2022-09-25T15:56:06.851Z,6.27
2022-09-25T15:58:44.010Z,7.63
2022-09-25T16:01:32.872Z,6.00
2022-09-25T16:04:19.718Z,5.97
2022-09-25T16:06:49.875Z,6.03
2022-09-25T16:09:31.257Z,7.07
2022-09-25T16:12:20.302Z,6.13
2022-09-25T16:14:48.716Z,6.30
2022-09-25T16:17:23.794Z,6.47
2022-09-25T16:20:07.157Z,5.60
2022-09-25T16:22:40.778Z,6.93
2022-09-25T16:25:21.111Z,6.20
2022-09-25T16:27:49.383Z,6.57
2022-09-25T16:30:18.835Z,7.73
2022-09-25T16:32:50.489Z,6.67
2022-09-25T16:35:25.896Z,6.83
2022-09-25T16:37:54.502Z,5.80
2022-09-25T16:40:33.569Z,6.23
2022-09-25T16:43:02.355Z,6.40
2022-09-25T16:45:34.111Z,6.03
2022-09-25T16:48:29.173Z,6.37
2022-09-25T16:50:59.894Z,5.93
2022-09-25T16:53:28.080Z,5.83
2022-09-25T16:55:56.858Z,6.57
2022-09-25T16:58:24.700Z,6.18
2022-09-25T17:00:52.421Z,6.47
2022-09-25T17:03:21.835Z,8.00
2022-09-25T17:05:49.633Z,9.40
2022-09-25T17:08:19.677Z,10.50
2022-09-25T17:10:50.565Z,9.23
2022-09-25T17:13:20.285Z,9.53
2022-09-25T17:15:47.971Z,10.07
2022-09-25T17:18:21.097Z,10.73
2022-09-25T17:20:52.436Z,11.07
2022-09-25T17:23:22.108Z,10.27
2022-09-25T17:25:58.243Z,11.50
2022-09-25T17:28:28.164Z,10.87
2022-09-25T17:30:55.826Z,10.83
2022-09-25T17:33:24.270Z,10.63
2022-09-25T17:35:56.375Z,10.73
2022-09-25T17:38:24.033Z,10.87
2022-09-25T17:40:53.345Z,11.07
2022-09-25T17:43:21.269Z,11.00
2022-09-25T17:45:50.657Z,12.00
2022-09-25T17:48:24.070Z,10.37
2022-09-25T17:50:54.360Z,11.27
2022-09-25T17:53:23.712Z,12.50
2022-09-25T17:55:53.915Z,12.17
2022-09-25T17:58:23.068Z,13.23
2022-09-25T18:00:51.539Z,12.53
2022-09-25T18:03:19.784Z,14.30
2022-09-25T18:05:48.480Z,11.27
2022-09-25T18:08:17.908Z,12.47
2022-09-25T18:10:46.362Z,11.37
2022-09-25T18:13:17.238Z,11.97
2022-09-25T18:15:48.896Z,11.90
2022-09-25T18:18:16.622Z,11.43
2022-09-25T18:21:05.662Z,11.10
2022-09-25T18:23:38.623Z,10.63
2022-09-25T18:26:09.187Z,9.80
2022-09-25T18:28:36.795Z,10.73
2022-09-25T18:31:04.451Z,10.03
2022-09-25T18:33:32.106Z,9.87
2022-09-25T18:35:59.905Z,10.00
2022-09-25T18:38:27.550Z,9.00
2022-09-25T18:40:56.619Z,9.27
2022-09-25T18:43:24.214Z,9.73
2022-09-25T18:45:52.073Z,9.83
2022-09-25T18:48:19.847Z,9.50
2022-09-25T18:50:47.493Z,9.07
2022-09-25T18:53:15.251Z,9.77
2022-09-25T18:55:43.710Z,8.57
2022-09-25T18:58:13.709Z,10.20
2022-09-25T19:00:42.047Z,11.03
2022-09-25T19:03:09.697Z,10.27
2022-09-25T19:05:37.391Z,9.70
2022-09-25T19:08:05.067Z,8.97
2022-09-25T19:10:36.055Z,8.63
2022-09-25T19:13:04.178Z,10.73
2022-09-25T19:15:33.311Z,10.60
2022-09-25T19:18:00.944Z,9.10
2022-09-25T19:20:28.935Z,9.40
2022-09-25T19:22:56.525Z,8.63
2022-09-25T19:25:24.167Z,9.20
2022-09-25T19:27:51.789Z,8.97
2022-09-25T19:30:19.352Z,9.37
2022-09-25T19:32:48.709Z,9.27
2022-09-25T19:35:16.336Z,7.87
2022-09-25T19:37:43.947Z,8.80
2022-09-25T19:40:29.373Z,8.47
2022-09-25T19:42:57.827Z,8.87
2022-09-25T19:45:25.932Z,10.43
2022-09-25T19:47:54.954Z,10.37
2022-09-25T19:50:22.687Z,10.33
2022-09-25T19:52:51.389Z,10.40
2022-09-25T19:55:19.675Z,10.17
2022-09-25T19:57:47.583Z,9.57
2022-09-25T20:00:17.222Z,9.60
2022-09-25T20:02:46.431Z,8.20
2022-09-25T20:05:17.121Z,8.30
2022-09-25T20:07:44.761Z,6.70
2022-09-25T20:10:12.403Z,6.80
2022-09-25T20:12:39.942Z,6.20
2022-09-25T20:15:08.577Z,7.37
2022-09-25T20:17:36.195Z,6.97
2022-09-25T20:20:03.923Z,6.27
2022-09-25T20:22:33.119Z,5.83
2022-09-25T20:25:00.655Z,6.40
2022-09-25T20:27:28.300Z,7.37
2022-09-25T20:29:55.896Z,6.67
2022-09-25T20:32:23.841Z,5.87
2022-09-25T20:34:51.580Z,5.10
2022-09-25T20:37:19.224Z,5.00
2022-09-25T20:39:48.130Z,5.13
2022-09-25T20:42:17.040Z,5.50
2022-09-25T20:44:44.639Z,4.87
2022-09-25T20:47:12.336Z,4.73
2022-09-25T20:49:39.962Z,4.40
2022-09-25T20:52:09.931Z,4.63
2022-09-25T20:54:39.103Z,4.60
2022-09-25T20:57:08.906Z,3.67
2022-09-25T20:59:36.578Z,4.50
2022-09-25T21:02:04.959Z,4.30
2022-09-25T21:04:32.798Z,4.00
2022-09-25T21:07:01.581Z,3.60
2022-09-25T21:09:29.638Z,3.90
2022-09-25T21:11:57.752Z,3.57
2022-09-25T21:14:28.336Z,3.83
2022-09-25T21:16:57.129Z,3.80
2022-09-25T21:19:24.819Z,4.10
2022-09-25T21:21:52.543Z,4.03
2022-09-25T21:24:21.677Z,4.47
2022-09-25T21:26:49.710Z,4.27
2022-09-25T21:29:18.021Z,4.00
2022-09-25T21:31:50.156Z,4.10
2022-09-25T21:34:18.964Z,3.67
2022-09-25T21:36:46.988Z,3.80
2022-09-25T21:39:14.767Z,4.40
2022-09-25T21:41:43.213Z,3.63
2022-09-25T21:44:13.989Z,3.03
2022-09-25T21:46:41.666Z,3.60
2022-09-25T21:49:17.002Z,3.40
2022-09-25T21:51:45.682Z,3.30
2022-09-25T21:54:13.932Z,3.10
2022-09-25T21:56:41.636Z,3.07
2022-09-25T21:59:09.696Z,2.70
2022-09-25T22:01:39.836Z,2.63
2022-09-25T22:04:12.209Z,3.23
2022-09-25T22:06:41.919Z,2.77
2022-09-25T22:09:11.591Z,2.70
2022-09-25T22:11:40.012Z,2.20
2022-09-25T22:14:13.297Z,2.67
2022-09-25T22:16:44.405Z,2.57
2022-09-25T22:19:16.595Z,2.50
2022-09-25T22:21:46.219Z,2.77
2022-09-25T22:24:13.889Z,2.63
2022-09-25T22:26:43.394Z,2.80
2022-09-25T22:29:12.046Z,2.63
2022-09-25T22:31:42.866Z,3.07
2022-09-25T22:34:20.424Z,3.00
2022-09-25T22:36:48.495Z,2.80
2022-09-25T22:39:17.953Z,3.00
2022-09-25T22:41:46.862Z,2.50
2022-09-25T22:44:14.559Z,3.60
2022-09-25T22:46:42.239Z,2.90
2022-09-25T22:49:10.245Z,2.80
2022-09-25T22:51:39.187Z,2.80
2022-09-25T22:54:07.084Z,2.70
2022-09-25T22:56:35.719Z,2.40
2022-09-25T22:59:05.901Z,2.47
2022-09-25T23:01:37.830Z,2.50
2022-09-25T23:04:07.814Z,2.33
2022-09-25T23:06:36.709Z,2.37
2022-09-25T23:09:07.450Z,2.13
2022-09-25T23:11:35.386Z,2.37
2022-09-25T23:14:05.762Z,1.90
2022-09-25T23:16:34.363Z,2.20
2022-09-25T23:19:02.989Z,1.80
2022-09-25T23:21:32.367Z,1.70
2022-09-25T23:24:01.963Z,2.07
2022-09-25T23:26:31.428Z,1.93
2022-09-25T23:29:00.124Z,2.13
2022-09-25T23:31:28.203Z,1.87
2022-09-25T23:33:56.230Z,1.90
2022-09-25T23:36:25.712Z,2.07
2022-09-25T23:38:55.611Z,2.17
2022-09-25T23:41:25.099Z,2.03
2022-09-25T23:43:55.461Z,2.07
2022-09-25T23:46:24.960Z,1.90
2022-09-25T23:48:53.733Z,1.83
2022-09-25T23:51:22.880Z,2.20
2022-09-25T23:53:51.149Z,1.93
2022-09-25T23:56:20.966Z,2.30
2022-09-25T23:58:49.499Z,2.30
